createdAt,value
2019-04-23T00:00:56.749Z,101212.10
2019-04-23T00:03:27.168Z,101212.38
2019-04-23T00:08:39.586Z,101207.83
2019-04-23T00:11:15.652Z,101202.80
2019-04-23T00:13:45.498Z,101199.52
2019-04-23T00:18:47.893Z,101198.28
2019-04-23T00:21:20.686Z,101199.60
2019-04-23T00:24:01.772Z,101194.63
2019-04-23T00:26:36.635Z,101191.87
2019-04-23T00:29:11.902Z,101189.25
2019-04-23T00:31:40.829Z,101179.82
2019-04-23T00:34:09.295Z,101184.16
2019-04-23T00:36:44.285Z,101191.97
2019-04-23T00:39:15.256Z,101173.59
2019-04-23T00:41:50.877Z,101180.50
2019-04-23T00:44:25.030Z,101181.34
2019-04-23T00:46:55.720Z,101180.02
2019-04-23T00:49:32.691Z,101173.66
2019-04-23T00:52:07.520Z,101172.61
2019-04-23T00:54:39.198Z,101162.37
2019-04-23T00:57:21.796Z,101164.92
2019-04-23T00:59:57.320Z,101162.64
2019-04-23T01:02:18.322Z,101163.82
2019-04-23T01:05:01.614Z,101161.50
2019-04-23T01:07:29.583Z,101159.59
2019-04-23T01:10:08.311Z,101165.69
2019-04-23T01:12:38.263Z,101160.72
2019-04-23T01:15:15.721Z,101160.08
2019-04-23T01:17:49.123Z,101162.25
2019-04-23T01:20:14.826Z,101160.69
2019-04-23T01:22:33.489Z,101161.10
2019-04-23T01:25:22.995Z,101156.17
2019-04-23T01:28:23.153Z,101155.70
2019-04-23T01:30:57.424Z,101150.73
2019-04-23T01:33:34.079Z,101141.40
2019-04-23T01:36:23.340Z,101147.97
2019-04-23T01:38:41.845Z,101147.03
2019-04-23T01:41:07.781Z,101136.58
2019-04-23T01:43:41.254Z,101141.36
2019-04-23T01:46:12.890Z,101133.78
2019-04-23T01:48:52.141Z,101132.36
2019-04-23T01:51:31.102Z,101130.12
2019-04-23T01:53:57.146Z,101129.16
2019-04-23T01:56:31.565Z,101119.38
2019-04-23T01:59:06.114Z,101128.02
2019-04-23T02:01:41.029Z,101110.31
2019-04-23T02:04:16.987Z,101115.94
2019-04-23T02:06:45.853Z,101108.20
2019-04-23T02:09:16.701Z,101110.53
2019-04-23T02:11:55.162Z,101112.03
2019-04-23T02:14:28.097Z,101100.86
2019-04-23T02:17:08.048Z,101096.00
2019-04-23T02:19:42.360Z,101096.68
2019-04-23T02:22:33.279Z,101104.08
2019-04-23T02:25:01.922Z,101100.17
2019-04-23T02:27:38.870Z,101102.66
2019-04-23T02:30:26.649Z,101096.88
2019-04-23T02:35:32.745Z,101096.78
2019-04-23T02:38:03.459Z,101088.20
2019-04-23T02:40:45.349Z,101088.63
2019-04-23T02:43:08.459Z,101091.53
2019-04-23T02:45:39.251Z,101083.52
2019-04-23T02:53:30.704Z,101073.14
2019-04-23T03:03:46.341Z,101062.92
2019-04-23T03:06:10.184Z,101062.33
2019-04-23T03:08:45.653Z,101060.05
2019-04-23T03:11:15.518Z,101052.37
2019-04-23T03:14:00.348Z,101058.88
2019-04-23T03:21:52.244Z,101055.59
2019-04-23T03:24:31.135Z,101058.02
2019-04-23T03:27:09.804Z,101051.55
2019-04-23T03:42:24.050Z,101046.97
2019-04-23T03:45:00.684Z,101037.71
2019-04-23T03:55:11.921Z,101035.58
2019-04-23T03:57:54.113Z,101034.92
2019-04-23T04:03:02.122Z,101036.25
2019-04-23T04:05:31.162Z,101039.86
2019-04-23T04:10:35.685Z,101035.48
2019-04-23T04:13:22.793Z,101028.31
2019-04-23T04:20:53.737Z,101032.70
2019-04-23T04:28:28.949Z,101036.67
2019-04-23T04:30:53.797Z,101034.09
2019-04-23T04:33:55.445Z,101036.41
2019-04-23T04:36:14.077Z,101049.05
2019-04-23T04:38:54.432Z,101039.06
2019-04-23T04:41:14.273Z,101047.05
2019-04-23T04:44:17.572Z,101041.83
2019-04-23T04:46:35.094Z,101043.09
2019-04-23T04:48:58.789Z,101043.32
2019-04-23T04:51:37.667Z,101038.20
2019-04-23T04:54:09.612Z,101041.84
2019-04-23T04:56:37.978Z,101041.06
2019-04-23T04:59:11.850Z,101036.36
2019-04-23T05:01:39.586Z,101040.42
2019-04-23T05:04:23.406Z,101035.01
2019-04-23T05:07:02.193Z,101037.91
2019-04-23T05:09:29.309Z,101037.08
2019-04-23T05:12:01.733Z,101029.72
2019-04-23T05:14:33.419Z,101023.27
2019-04-23T05:17:13.512Z,101028.72
2019-04-23T05:19:42.627Z,101029.00
2019-04-23T05:22:16.117Z,101024.77
2019-04-23T05:27:17.552Z,101021.60
2019-04-23T05:29:55.948Z,101024.14
2019-04-23T05:32:26.204Z,101022.14
2019-04-23T05:34:57.632Z,101027.69
2019-04-23T05:37:42.247Z,101024.83
2019-04-23T05:40:14.522Z,101024.72
2019-04-23T05:42:43.062Z,101023.06
2019-04-23T05:45:29.787Z,101024.19
2019-04-23T05:47:53.436Z,101022.27
2019-04-23T05:50:29.169Z,101024.64
2019-04-23T05:52:59.051Z,101021.81
2019-04-23T05:55:32.901Z,101010.53
2019-04-23T05:58:05.183Z,101013.00
2019-04-23T06:00:51.146Z,101007.97
2019-04-23T06:03:16.012Z,101006.80
2019-04-23T06:05:58.256Z,101002.78
2019-04-23T06:08:25.279Z,100994.05
2019-04-23T06:11:01.993Z,100993.44
2019-04-23T06:13:36.302Z,101002.48
2019-04-23T06:16:05.056Z,101001.41
2019-04-23T06:18:40.721Z,100994.08
2019-04-23T06:21:10.087Z,100992.52
2019-04-23T06:23:49.605Z,100996.31
2019-04-23T06:28:56.126Z,100998.59
2019-04-23T06:34:03.890Z,100994.25
2019-04-23T06:36:32.675Z,101002.00
2019-04-23T06:39:10.283Z,100983.63
2019-04-23T06:41:46.563Z,100982.49
2019-04-23T06:44:19.556Z,100985.51
2019-04-23T06:49:28.445Z,100989.52
2019-04-23T06:54:37.868Z,100983.39
2019-04-23T06:59:35.751Z,100985.59
2019-04-23T07:02:20.663Z,100985.86
2019-04-23T07:09:56.213Z,100981.00
2019-04-23T07:15:30.664Z,100964.69
2019-04-23T07:17:30.749Z,100962.28
2019-04-23T07:20:06.838Z,100972.78
2019-04-23T07:22:43.240Z,100962.87
2019-04-23T07:25:18.939Z,100965.78
2019-04-23T07:27:49.003Z,100959.38
2019-04-23T07:30:23.714Z,100958.34
2019-04-23T07:32:56.633Z,100961.71
2019-04-23T07:35:31.647Z,100962.42
2019-04-23T07:38:32.748Z,100958.72
2019-04-23T07:40:54.149Z,100956.30
2019-04-23T07:43:33.543Z,100956.58
2019-04-23T07:46:16.868Z,100955.52
2019-04-23T07:48:43.967Z,100945.58
2019-04-23T07:51:19.826Z,100941.35
2019-04-23T07:53:52.113Z,100939.31
2019-04-23T07:56:21.388Z,100931.98
2019-04-23T07:58:57.038Z,100930.09
2019-04-23T08:01:32.019Z,100928.09
2019-04-23T08:04:04.565Z,100926.11
2019-04-23T08:06:41.295Z,100925.90
2019-04-23T08:09:22.366Z,100926.15
2019-04-23T08:12:02.657Z,100916.18
2019-04-23T08:14:13.572Z,100904.02
2019-04-23T08:16:53.035Z,100910.45
2019-04-23T08:19:38.518Z,100907.09
2019-04-23T08:22:12.785Z,100902.47
2019-04-23T08:24:52.233Z,100903.14
2019-04-23T08:27:24.081Z,100901.11
2019-04-23T08:29:58.475Z,100899.11
2019-04-23T08:32:38.557Z,100889.98
2019-04-23T08:37:54.314Z,100897.00
2019-04-23T08:40:16.090Z,100887.40
2019-04-23T08:45:28.031Z,100884.20
2019-04-23T08:50:47.839Z,100879.80
2019-04-23T08:53:30.877Z,100881.81
2019-04-23T09:01:05.868Z,100865.50
2019-04-23T09:03:34.416Z,100875.45
2019-04-23T09:06:14.051Z,100873.24
2019-04-23T09:11:30.105Z,100862.39
2019-04-23T09:16:25.412Z,100861.27
2019-04-23T09:19:04.615Z,100852.54
2019-04-23T09:21:30.263Z,100848.18
2019-04-23T09:24:03.721Z,100846.95
2019-04-23T09:26:40.605Z,100845.27
2019-04-23T09:29:17.231Z,100836.95
2019-04-23T09:34:43.303Z,100836.28
2019-04-23T09:37:28.346Z,100828.89
2019-04-23T09:39:59.116Z,100825.39
2019-04-23T09:42:54.566Z,100836.53
2019-04-23T09:45:29.649Z,100849.58
2019-04-23T09:48:01.868Z,100843.48
2019-04-23T09:53:24.124Z,100829.13
2019-04-23T09:55:51.456Z,100828.81
2019-04-23T10:00:56.181Z,100826.91
2019-04-23T10:03:23.847Z,100817.64
2019-04-23T10:05:50.565Z,100825.88
2019-04-23T10:08:21.148Z,100815.77
2019-04-23T10:10:47.251Z,100818.14
2019-04-23T10:13:19.941Z,100812.11
2019-04-23T10:15:53.590Z,100804.23
2019-04-23T10:18:26.845Z,100807.05
2019-04-23T10:20:59.330Z,100810.75
2019-04-23T10:23:31.574Z,100811.31
2019-04-23T10:26:03.937Z,100797.50
2019-04-23T10:28:38.127Z,100796.23
2019-04-23T10:31:10.220Z,100797.23
2019-04-23T10:33:42.228Z,100786.59
2019-04-23T10:36:19.923Z,100783.08
2019-04-23T10:38:59.774Z,100771.16
2019-04-23T10:41:24.224Z,100779.75
2019-04-23T10:43:58.681Z,100772.30
2019-04-23T10:46:53.751Z,100782.73
2019-04-23T10:49:47.695Z,100762.72
2019-04-23T10:52:24.794Z,100773.14
2019-04-23T10:57:17.314Z,100747.96
2019-04-23T11:00:01.538Z,100755.70
2019-04-23T11:05:26.094Z,100752.29
2019-04-23T11:10:08.657Z,100746.75
2019-04-23T11:15:36.217Z,100748.19
2019-04-23T11:17:47.720Z,100742.86
2019-04-23T11:20:45.413Z,100757.16
2019-04-23T11:23:17.523Z,100757.02
2019-04-23T11:25:36.088Z,100753.00
2019-04-23T11:28:13.585Z,100745.95
2019-04-23T11:30:51.503Z,100735.52
2019-04-23T11:38:48.649Z,100729.77
2019-04-23T11:41:17.293Z,100717.91
2019-04-23T11:43:38.066Z,100722.05
2019-04-23T11:46:32.544Z,100727.09
2019-04-23T11:49:10.322Z,100724.92
2019-04-23T11:54:01.568Z,100721.80
2019-04-23T11:57:05.481Z,100716.48
2019-04-23T11:59:06.916Z,100711.16
2019-04-23T12:02:07.483Z,100708.04
2019-04-23T12:04:38.572Z,100700.84
2019-04-23T12:07:11.042Z,100695.07
2019-04-23T12:09:58.190Z,100690.69
2019-04-23T12:12:25.075Z,100701.98
2019-04-23T12:15:03.642Z,100693.92
2019-04-23T12:17:43.809Z,100695.72
2019-04-23T12:20:12.279Z,100690.80
2019-04-23T12:22:54.014Z,100696.23
2019-04-23T12:27:42.040Z,100669.02
2019-04-23T12:30:36.546Z,100670.31
2019-04-23T12:35:43.743Z,100678.38
2019-04-23T12:40:44.230Z,100684.16
2019-04-23T12:45:47.337Z,100692.28
2019-04-23T12:51:21.309Z,100685.59
2019-04-23T12:53:39.837Z,100678.87
2019-04-23T12:56:10.608Z,100687.38
2019-04-23T12:58:33.927Z,100681.58
2019-04-23T13:01:14.124Z,100683.36
2019-04-23T13:03:45.612Z,100673.03
2019-04-23T13:06:20.640Z,100685.59
2019-04-23T13:08:56.917Z,100669.45
2019-04-23T13:11:34.870Z,100681.11
2019-04-23T13:19:16.811Z,100670.69
2019-04-23T13:22:04.369Z,100664.41
2019-04-23T13:24:36.058Z,100671.12
2019-04-23T13:27:10.668Z,100663.08
2019-04-23T13:32:24.280Z,100655.45
2019-04-23T13:34:58.835Z,100655.00
2019-04-23T13:37:31.537Z,100639.80
2019-04-23T13:40:16.985Z,100645.17
2019-04-23T13:42:42.771Z,100653.30
2019-04-23T13:45:18.388Z,100654.20
2019-04-23T13:47:46.928Z,100652.39
2019-04-23T13:50:17.544Z,100660.01
2019-04-23T13:55:34.649Z,100660.41
2019-04-23T14:00:36.907Z,100659.04
2019-04-23T14:02:54.745Z,100630.75
2019-04-23T14:05:41.274Z,100621.69
2019-04-23T14:10:46.521Z,100618.02
2019-04-23T14:13:37.324Z,100625.50
2019-04-23T14:16:11.749Z,100620.34
2019-04-23T14:21:08.701Z,100618.77
2019-04-23T14:23:54.095Z,100600.98
2019-04-23T14:26:18.687Z,100607.86
2019-04-23T14:28:43.627Z,100615.10
2019-04-23T14:34:03.558Z,100605.80
2019-04-23T14:39:04.247Z,100611.64
2019-04-23T14:41:26.668Z,100618.17
2019-04-23T14:44:12.955Z,100618.98
2019-04-23T14:46:55.839Z,100615.09
2019-04-23T14:49:54.042Z,100614.62
2019-04-23T14:52:18.884Z,100624.30
2019-04-23T14:55:25.286Z,100615.88
2019-04-23T14:57:24.818Z,100612.61
2019-04-23T14:59:57.390Z,100602.80
2019-04-23T15:05:04.177Z,100609.86
2019-04-23T15:07:38.020Z,100604.55
2019-04-23T15:10:18.577Z,100609.89
2019-04-23T15:12:47.845Z,100611.45
2019-04-23T15:17:49.763Z,100604.38
2019-04-23T15:20:32.486Z,100597.44
2019-04-23T15:23:33.662Z,100598.87
2019-04-23T15:26:15.744Z,100598.33
2019-04-23T15:28:09.033Z,100599.42
2019-04-23T15:30:57.089Z,100595.30
